sensor_id;sensor_type;location;lat;lon;timestamp;P1;durP1;ratioP1;P2;durP2;ratioP2
66272;SDS011;58450;52.150;4.466;2023-05-07T00:00:57;21.50;;;13.90;;
66272;SDS011;58450;52.150;4.466;2023-05-07T00:03:26;17.67;;;13.85;;
66272;SDS011;58450;52.150;4.466;2023-05-07T00:05:53;20.20;;;14.88;;
66272;SDS011;58450;52.150;4.466;2023-05-07T00:08:21;19.65;;;14.85;;
66272;SDS011;58450;52.150;4.466;2023-05-07T00:10:48;18.75;;;13.77;;
66272;SDS011;58450;52.150;4.466;2023-05-07T00:13:16;19.05;;;13.90;;
66272;SDS011;58450;52.150;4.466;2023-05-07T00:15:45;17.33;;;13.27;;
66272;SDS011;58450;52.150;4.466;2023-05-07T00:18:12;19.10;;;14.15;;
66272;SDS011;58450;52.150;4.466;2023-05-07T00:20:40;19.98;;;14.43;;
66272;SDS011;58450;52.150;4.466;2023-05-07T00:23:07;21.13;;;14.50;;
66272;SDS011;58450;52.150;4.466;2023-05-07T00:25:36;19.02;;;14.15;;
66272;SDS011;58450;52.150;4.466;2023-05-07T00:28:03;18.58;;;14.02;;
66272;SDS011;58450;52.150;4.466;2023-05-07T00:30:31;20.33;;;14.75;;
66272;SDS011;58450;52.150;4.466;2023-05-07T00:33:00;20.27;;;14.90;;
66272;SDS011;58450;52.150;4.466;2023-05-07T00:35:27;23.52;;;16.80;;
66272;SDS011;58450;52.150;4.466;2023-05-07T00:37:56;19.45;;;14.68;;
66272;SDS011;58450;52.150;4.466;2023-05-07T00:40:23;23.20;;;16.83;;
66272;SDS011;58450;52.150;4.466;2023-05-07T00:42:51;24.30;;;16.65;;
66272;SDS011;58450;52.150;4.466;2023-05-07T00:45:24;23.67;;;16.92;;
66272;SDS011;58450;52.150;4.466;2023-05-07T00:47:54;23.88;;;17.90;;
66272;SDS011;58450;52.150;4.466;2023-05-07T00:50:25;24.60;;;18.48;;
66272;SDS011;58450;52.150;4.466;2023-05-07T00:52:53;23.27;;;17.60;;
66272;SDS011;58450;52.150;4.466;2023-05-07T00:55:22;24.65;;;18.88;;
66272;SDS011;58450;52.150;4.466;2023-05-07T00:57:50;26.13;;;18.08;;
66272;SDS011;58450;52.150;4.466;2023-05-07T01:00:18;24.55;;;18.35;;
66272;SDS011;58450;52.150;4.466;2023-05-07T01:02:46;25.90;;;18.55;;
66272;SDS011;58450;52.150;4.466;2023-05-07T01:05:15;28.13;;;19.58;;
66272;SDS011;58450;52.150;4.466;2023-05-07T01:07:47;26.48;;;19.15;;
66272;SDS011;58450;52.150;4.466;2023-05-07T01:10:16;26.08;;;18.63;;
66272;SDS011;58450;52.150;4.466;2023-05-07T01:12:44;23.92;;;17.90;;
66272;SDS011;58450;52.150;4.466;2023-05-07T01:15:15;25.17;;;18.45;;
66272;SDS011;58450;52.150;4.466;2023-05-07T01:17:44;24.77;;;17.83;;
66272;SDS011;58450;52.150;4.466;2023-05-07T01:20:12;22.80;;;17.17;;
66272;SDS011;58450;52.150;4.466;2023-05-07T01:22:43;24.48;;;18.10;;
66272;SDS011;58450;52.150;4.466;2023-05-07T01:25:11;27.35;;;18.80;;
66272;SDS011;58450;52.150;4.466;2023-05-07T01:27:41;25.67;;;19.20;;
66272;SDS011;58450;52.150;4.466;2023-05-07T01:30:09;28.10;;;19.52;;
66272;SDS011;58450;52.150;4.466;2023-05-07T01:32:40;25.02;;;18.58;;
66272;SDS011;58450;52.150;4.466;2023-05-07T01:35:15;26.55;;;18.85;;
66272;SDS011;58450;52.150;4.466;2023-05-07T01:37:49;25.40;;;18.92;;
66272;SDS011;58450;52.150;4.466;2023-05-07T01:40:17;27.52;;;19.27;;
66272;SDS011;58450;52.150;4.466;2023-05-07T01:42:45;27.85;;;19.88;;
66272;SDS011;58450;52.150;4.466;2023-05-07T01:45:14;25.75;;;19.10;;
66272;SDS011;58450;52.150;4.466;2023-05-07T01:47:42;26.52;;;19.10;;
66272;SDS011;58450;52.150;4.466;2023-05-07T01:50:11;24.55;;;18.20;;
66272;SDS011;58450;52.150;4.466;2023-05-07T01:52:39;28.13;;;20.17;;
66272;SDS011;58450;52.150;4.466;2023-05-07T01:55:08;26.05;;;18.20;;
66272;SDS011;58450;52.150;4.466;2023-05-07T01:57:36;26.60;;;18.10;;
66272;SDS011;58450;52.150;4.466;2023-05-07T02:00:04;27.10;;;18.55;;
66272;SDS011;58450;52.150;4.466;2023-05-07T02:02:34;27.63;;;18.02;;
66272;SDS011;58450;52.150;4.466;2023-05-07T02:05:04;27.30;;;18.08;;
66272;SDS011;58450;52.150;4.466;2023-05-07T02:07:32;29.58;;;19.42;;
66272;SDS011;58450;52.150;4.466;2023-05-07T02:10:00;27.75;;;19.77;;
66272;SDS011;58450;52.150;4.466;2023-05-07T02:12:29;26.98;;;18.65;;
66272;SDS011;58450;52.150;4.466;2023-05-07T02:14:56;28.58;;;18.85;;
66272;SDS011;58450;52.150;4.466;2023-05-07T02:17:24;26.00;;;17.90;;
66272;SDS011;58450;52.150;4.466;2023-05-07T02:19:51;24.08;;;17.70;;
66272;SDS011;58450;52.150;4.466;2023-05-07T02:22:19;25.75;;;17.80;;
66272;SDS011;58450;52.150;4.466;2023-05-07T02:24:46;22.88;;;16.80;;
66272;SDS011;58450;52.150;4.466;2023-05-07T02:27:14;23.88;;;16.83;;
66272;SDS011;58450;52.150;4.466;2023-05-07T02:29:43;24.13;;;17.38;;
66272;SDS011;58450;52.150;4.466;2023-05-07T02:32:11;22.83;;;16.63;;
66272;SDS011;58450;52.150;4.466;2023-05-07T02:34:38;26.42;;;18.50;;
66272;SDS011;58450;52.150;4.466;2023-05-07T02:37:06;25.92;;;17.05;;
66272;SDS011;58450;52.150;4.466;2023-05-07T02:39:33;22.70;;;17.50;;
66272;SDS011;58450;52.150;4.466;2023-05-07T02:42:01;22.02;;;17.00;;
66272;SDS011;58450;52.150;4.466;2023-05-07T02:44:28;24.00;;;17.80;;
66272;SDS011;58450;52.150;4.466;2023-05-07T02:46:58;22.83;;;16.38;;
66272;SDS011;58450;52.150;4.466;2023-05-07T02:49:25;22.13;;;16.88;;
66272;SDS011;58450;52.150;4.466;2023-05-07T02:51:53;23.70;;;17.38;;
66272;SDS011;58450;52.150;4.466;2023-05-07T02:54:21;22.23;;;16.92;;
66272;SDS011;58450;52.150;4.466;2023-05-07T02:56:48;22.10;;;15.20;;
66272;SDS011;58450;52.150;4.466;2023-05-07T02:59:16;22.23;;;15.55;;
66272;SDS011;58450;52.150;4.466;2023-05-07T03:01:43;23.80;;;16.20;;
66272;SDS011;58450;52.150;4.466;2023-05-07T03:04:12;19.30;;;14.90;;
66272;SDS011;58450;52.150;4.466;2023-05-07T03:06:40;20.00;;;15.18;;
66272;SDS011;58450;52.150;4.466;2023-05-07T03:09:07;19.00;;;14.63;;
66272;SDS011;58450;52.150;4.466;2023-05-07T03:11:34;20.20;;;14.63;;
66272;SDS011;58450;52.150;4.466;2023-05-07T03:14:02;20.23;;;14.43;;
66272;SDS011;58450;52.150;4.466;2023-05-07T03:16:29;19.67;;;14.75;;
66272;SDS011;58450;52.150;4.466;2023-05-07T03:18:57;19.38;;;14.75;;
66272;SDS011;58450;52.150;4.466;2023-05-07T03:21:26;19.90;;;15.02;;
66272;SDS011;58450;52.150;4.466;2023-05-07T03:23:53;19.95;;;14.43;;
66272;SDS011;58450;52.150;4.466;2023-05-07T03:26:21;18.48;;;13.90;;
66272;SDS011;58450;52.150;4.466;2023-05-07T03:28:49;19.90;;;13.88;;
66272;SDS011;58450;52.150;4.466;2023-05-07T03:31:16;17.73;;;13.05;;
66272;SDS011;58450;52.150;4.466;2023-05-07T03:33:50;17.63;;;13.23;;
66272;SDS011;58450;52.150;4.466;2023-05-07T03:36:19;17.63;;;13.45;;
66272;SDS011;58450;52.150;4.466;2023-05-07T03:38:48;17.95;;;14.00;;
66272;SDS011;58450;52.150;4.466;2023-05-07T03:41:16;16.30;;;12.60;;
66272;SDS011;58450;52.150;4.466;2023-05-07T03:43:44;15.95;;;12.82;;
66272;SDS011;58450;52.150;4.466;2023-05-07T03:46:12;16.08;;;12.95;;
66272;SDS011;58450;52.150;4.466;2023-05-07T03:48:39;18.42;;;13.95;;
66272;SDS011;58450;52.150;4.466;2023-05-07T03:51:07;17.40;;;13.32;;
66272;SDS011;58450;52.150;4.466;2023-05-07T03:53:34;16.27;;;11.70;;
66272;SDS011;58450;52.150;4.466;2023-05-07T03:56:03;15.93;;;11.75;;
66272;SDS011;58450;52.150;4.466;2023-05-07T03:58:31;16.63;;;12.30;;
66272;SDS011;58450;52.150;4.466;2023-05-07T04:00:58;15.98;;;12.65;;
66272;SDS011;58450;52.150;4.466;2023-05-07T04:03:26;16.30;;;12.57;;
66272;SDS011;58450;52.150;4.466;2023-05-07T04:05:54;14.57;;;11.68;;
66272;SDS011;58450;52.150;4.466;2023-05-07T04:08:21;16.98;;;12.85;;
66272;SDS011;58450;52.150;4.466;2023-05-07T04:10:54;14.88;;;11.80;;
66272;SDS011;58450;52.150;4.466;2023-05-07T04:13:23;14.88;;;11.40;;
66272;SDS011;58450;52.150;4.466;2023-05-07T04:15:51;15.85;;;11.60;;
66272;SDS011;58450;52.150;4.466;2023-05-07T04:18:19;14.75;;;11.18;;
66272;SDS011;58450;52.150;4.466;2023-05-07T04:20:47;13.93;;;11.13;;
66272;SDS011;58450;52.150;4.466;2023-05-07T04:23:15;15.45;;;11.68;;
66272;SDS011;58450;52.150;4.466;2023-05-07T04:25:42;14.68;;;11.70;;
66272;SDS011;58450;52.150;4.466;2023-05-07T04:28:11;14.02;;;11.50;;
66272;SDS011;58450;52.150;4.466;2023-05-07T04:30:41;15.13;;;11.35;;
66272;SDS011;58450;52.150;4.466;2023-05-07T04:33:08;14.00;;;10.95;;
66272;SDS011;58450;52.150;4.466;2023-05-07T04:35:36;14.40;;;10.98;;
66272;SDS011;58450;52.150;4.466;2023-05-07T04:38:04;14.93;;;10.77;;
66272;SDS011;58450;52.150;4.466;2023-05-07T04:40:31;14.68;;;11.27;;
66272;SDS011;58450;52.150;4.466;2023-05-07T04:42:58;15.65;;;11.20;;
66272;SDS011;58450;52.150;4.466;2023-05-07T04:45:27;12.93;;;10.30;;
66272;SDS011;58450;52.150;4.466;2023-05-07T04:47:55;13.23;;;9.60;;
66272;SDS011;58450;52.150;4.466;2023-05-07T04:50:23;14.27;;;11.32;;
66272;SDS011;58450;52.150;4.466;2023-05-07T04:52:50;13.20;;;10.40;;
66272;SDS011;58450;52.150;4.466;2023-05-07T04:55:18;12.00;;;9.73;;
66272;SDS011;58450;52.150;4.466;2023-05-07T04:57:45;12.43;;;9.50;;
66272;SDS011;58450;52.150;4.466;2023-05-07T05:00:13;11.75;;;8.75;;
66272;SDS011;58450;52.150;4.466;2023-05-07T05:02:42;12.73;;;8.65;;
66272;SDS011;58450;52.150;4.466;2023-05-07T05:05:11;11.15;;;8.18;;
66272;SDS011;58450;52.150;4.466;2023-05-07T05:07:38;12.35;;;9.43;;
66272;SDS011;58450;52.150;4.466;2023-05-07T05:10:06;12.77;;;9.18;;
66272;SDS011;58450;52.150;4.466;2023-05-07T05:12:34;11.32;;;8.52;;
66272;SDS011;58450;52.150;4.466;2023-05-07T05:15:01;10.88;;;7.68;;
66272;SDS011;58450;52.150;4.466;2023-05-07T05:17:29;11.00;;;8.02;;
66272;SDS011;58450;52.150;4.466;2023-05-07T05:19:57;11.23;;;8.90;;
66272;SDS011;58450;52.150;4.466;2023-05-07T05:22:25;13.60;;;9.05;;
66272;SDS011;58450;52.150;4.466;2023-05-07T05:24:55;11.55;;;8.65;;
66272;SDS011;58450;52.150;4.466;2023-05-07T05:27:23;11.40;;;8.38;;
66272;SDS011;58450;52.150;4.466;2023-05-07T05:29:50;10.85;;;8.25;;
66272;SDS011;58450;52.150;4.466;2023-05-07T05:32:18;11.02;;;8.73;;
66272;SDS011;58450;52.150;4.466;2023-05-07T05:34:45;12.57;;;9.10;;
66272;SDS011;58450;52.150;4.466;2023-05-07T05:37:13;13.00;;;9.38;;
66272;SDS011;58450;52.150;4.466;2023-05-07T05:39:42;11.43;;;9.05;;
66272;SDS011;58450;52.150;4.466;2023-05-07T05:42:09;11.80;;;8.55;;
66272;SDS011;58450;52.150;4.466;2023-05-07T05:44:37;12.32;;;8.43;;
66272;SDS011;58450;52.150;4.466;2023-05-07T05:47:04;9.93;;;7.95;;
66272;SDS011;58450;52.150;4.466;2023-05-07T05:49:32;12.05;;;9.38;;
66272;SDS011;58450;52.150;4.466;2023-05-07T05:52:00;11.38;;;9.35;;
66272;SDS011;58450;52.150;4.466;2023-05-07T05:54:27;11.23;;;8.95;;
66272;SDS011;58450;52.150;4.466;2023-05-07T05:56:56;11.52;;;8.73;;
66272;SDS011;58450;52.150;4.466;2023-05-07T05:59:24;10.73;;;8.20;;
66272;SDS011;58450;52.150;4.466;2023-05-07T06:01:52;11.50;;;8.80;;
66272;SDS011;58450;52.150;4.466;2023-05-07T06:04:19;10.70;;;7.90;;
66272;SDS011;58450;52.150;4.466;2023-05-07T06:06:47;10.85;;;8.50;;
66272;SDS011;58450;52.150;4.466;2023-05-07T06:09:14;11.23;;;8.35;;
66272;SDS011;58450;52.150;4.466;2023-05-07T06:11:42;11.07;;;8.32;;
66272;SDS011;58450;52.150;4.466;2023-05-07T06:14:11;11.18;;;8.82;;
66272;SDS011;58450;52.150;4.466;2023-05-07T06:16:38;13.05;;;10.48;;
66272;SDS011;58450;52.150;4.466;2023-05-07T06:19:06;13.25;;;9.20;;
66272;SDS011;58450;52.150;4.466;2023-05-07T06:21:33;11.25;;;8.63;;
66272;SDS011;58450;52.150;4.466;2023-05-07T06:24:01;12.10;;;9.57;;
66272;SDS011;58450;52.150;4.466;2023-05-07T06:26:28;11.20;;;8.02;;
66272;SDS011;58450;52.150;4.466;2023-05-07T06:28:56;13.07;;;9.60;;
66272;SDS011;58450;52.150;4.466;2023-05-07T06:31:28;12.48;;;8.82;;
66272;SDS011;58450;52.150;4.466;2023-05-07T06:33:57;12.60;;;9.18;;
66272;SDS011;58450;52.150;4.466;2023-05-07T06:36:25;9.95;;;7.90;;
66272;SDS011;58450;52.150;4.466;2023-05-07T06:38:53;11.52;;;9.43;;
66272;SDS011;58450;52.150;4.466;2023-05-07T06:41:20;11.20;;;8.68;;
66272;SDS011;58450;52.150;4.466;2023-05-07T06:43:48;11.07;;;9.18;;
66272;SDS011;58450;52.150;4.466;2023-05-07T06:46:15;10.63;;;8.43;;
66272;SDS011;58450;52.150;4.466;2023-05-07T06:48:44;10.95;;;8.43;;
66272;SDS011;58450;52.150;4.466;2023-05-07T06:51:12;10.85;;;8.52;;
66272;SDS011;58450;52.150;4.466;2023-05-07T06:53:39;12.13;;;9.48;;
66272;SDS011;58450;52.150;4.466;2023-05-07T06:56:07;11.25;;;8.57;;
66272;SDS011;58450;52.150;4.466;2023-05-07T06:58:34;10.93;;;8.75;;
66272;SDS011;58450;52.150;4.466;2023-05-07T07:01:02;11.70;;;8.93;;
66272;SDS011;58450;52.150;4.466;2023-05-07T07:03:29;13.18;;;9.75;;
66272;SDS011;58450;52.150;4.466;2023-05-07T07:05:58;14.55;;;11.25;;
66272;SDS011;58450;52.150;4.466;2023-05-07T07:08:27;14.07;;;10.57;;
66272;SDS011;58450;52.150;4.466;2023-05-07T07:10:55;10.82;;;8.52;;
66272;SDS011;58450;52.150;4.466;2023-05-07T07:13:22;11.90;;;8.25;;
66272;SDS011;58450;52.150;4.466;2023-05-07T07:15:51;12.20;;;9.57;;
66272;SDS011;58450;52.150;4.466;2023-05-07T07:18:18;10.27;;;8.38;;
66272;SDS011;58450;52.150;4.466;2023-05-07T07:20:46;12.27;;;8.63;;
66272;SDS011;58450;52.150;4.466;2023-05-07T07:23:15;13.57;;;8.38;;
66272;SDS011;58450;52.150;4.466;2023-05-07T07:25:43;10.43;;;7.68;;
66272;SDS011;58450;52.150;4.466;2023-05-07T07:28:10;10.23;;;7.90;;
66272;SDS011;58450;52.150;4.466;2023-05-07T07:30:38;9.98;;;6.85;;
66272;SDS011;58450;52.150;4.466;2023-05-07T07:33:06;9.55;;;6.85;;
66272;SDS011;58450;52.150;4.466;2023-05-07T07:35:33;9.05;;;6.05;;
66272;SDS011;58450;52.150;4.466;2023-05-07T07:38:01;8.15;;;5.18;;
66272;SDS011;58450;52.150;4.466;2023-05-07T07:40:30;8.80;;;5.95;;
66272;SDS011;58450;52.150;4.466;2023-05-07T07:42:58;6.47;;;4.75;;
66272;SDS011;58450;52.150;4.466;2023-05-07T07:45:27;7.13;;;4.60;;
66272;SDS011;58450;52.150;4.466;2023-05-07T07:47:54;6.85;;;4.00;;
66272;SDS011;58450;52.150;4.466;2023-05-07T07:50:22;7.63;;;4.18;;
66272;SDS011;58450;52.150;4.466;2023-05-07T07:52:50;6.22;;;3.45;;
66272;SDS011;58450;52.150;4.466;2023-05-07T07:55:19;6.60;;;4.20;;
66272;SDS011;58450;52.150;4.466;2023-05-07T07:57:50;6.65;;;4.43;;
66272;SDS011;58450;52.150;4.466;2023-05-07T08:00:17;7.20;;;4.50;;
66272;SDS011;58450;52.150;4.466;2023-05-07T08:02:45;6.22;;;3.65;;
66272;SDS011;58450;52.150;4.466;2023-05-07T08:05:13;5.47;;;3.15;;
66272;SDS011;58450;52.150;4.466;2023-05-07T08:07:41;5.38;;;3.17;;
66272;SDS011;58450;52.150;4.466;2023-05-07T08:10:09;4.57;;;2.97;;
66272;SDS011;58450;52.150;4.466;2023-05-07T08:12:36;5.47;;;2.88;;
66272;SDS011;58450;52.150;4.466;2023-05-07T08:15:06;5.82;;;3.13;;
66272;SDS011;58450;52.150;4.466;2023-05-07T08:17:35;3.97;;;2.85;;
66272;SDS011;58450;52.150;4.466;2023-05-07T08:20:03;3.80;;;2.35;;
66272;SDS011;58450;52.150;4.466;2023-05-07T08:22:32;4.20;;;2.45;;
66272;SDS011;58450;52.150;4.466;2023-05-07T08:24:59;4.50;;;2.47;;
66272;SDS011;58450;52.150;4.466;2023-05-07T08:27:27;5.03;;;2.75;;
66272;SDS011;58450;52.150;4.466;2023-05-07T08:29:54;5.25;;;2.55;;
66272;SDS011;58450;52.150;4.466;2023-05-07T08:32:23;5.60;;;2.67;;
66272;SDS011;58450;52.150;4.466;2023-05-07T08:34:51;4.95;;;2.45;;
66272;SDS011;58450;52.150;4.466;2023-05-07T08:37:18;4.47;;;2.22;;
66272;SDS011;58450;52.150;4.466;2023-05-07T08:39:46;3.75;;;2.08;;
66272;SDS011;58450;52.150;4.466;2023-05-07T08:42:13;5.78;;;2.47;;
66272;SDS011;58450;52.150;4.466;2023-05-07T08:44:45;6.03;;;2.70;;
66272;SDS011;58450;52.150;4.466;2023-05-07T08:47:13;5.43;;;3.00;;
66272;SDS011;58450;52.150;4.466;2023-05-07T08:49:42;5.03;;;2.70;;
66272;SDS011;58450;52.150;4.466;2023-05-07T08:52:11;5.15;;;2.60;;
66272;SDS011;58450;52.150;4.466;2023-05-07T08:54:41;4.93;;;2.95;;
66272;SDS011;58450;52.150;4.466;2023-05-07T08:57:11;6.00;;;3.35;;
66272;SDS011;58450;52.150;4.466;2023-05-07T08:59:41;6.20;;;3.30;;
66272;SDS011;58450;52.150;4.466;2023-05-07T09:02:08;6.07;;;3.05;;
66272;SDS011;58450;52.150;4.466;2023-05-07T09:04:38;5.53;;;2.53;;
66272;SDS011;58450;52.150;4.466;2023-05-07T09:07:07;5.65;;;2.83;;
66272;SDS011;58450;52.150;4.466;2023-05-07T09:09:34;6.07;;;2.95;;
66272;SDS011;58450;52.150;4.466;2023-05-07T09:12:02;4.78;;;2.80;;
66272;SDS011;58450;52.150;4.466;2023-05-07T09:14:30;6.80;;;3.38;;
66272;SDS011;58450;52.150;4.466;2023-05-07T09:16:57;6.53;;;3.15;;
66272;SDS011;58450;52.150;4.466;2023-05-07T09:19:25;6.82;;;3.28;;
66272;SDS011;58450;52.150;4.466;2023-05-07T09:21:59;6.90;;;3.25;;
66272;SDS011;58450;52.150;4.466;2023-05-07T09:24:29;5.85;;;3.25;;
66272;SDS011;58450;52.150;4.466;2023-05-07T09:27:00;6.65;;;3.35;;
66272;SDS011;58450;52.150;4.466;2023-05-07T09:29:29;5.30;;;2.80;;
66272;SDS011;58450;52.150;4.466;2023-05-07T09:32:01;4.65;;;2.67;;
66272;SDS011;58450;52.150;4.466;2023-05-07T09:34:29;5.35;;;3.08;;
66272;SDS011;58450;52.150;4.466;2023-05-07T09:36:58;4.93;;;2.85;;
66272;SDS011;58450;52.150;4.466;2023-05-07T09:39:39;6.95;;;3.67;;
66272;SDS011;58450;52.150;4.466;2023-05-07T09:42:07;5.35;;;3.30;;
66272;SDS011;58450;52.150;4.466;2023-05-07T09:44:35;4.05;;;2.38;;
66272;SDS011;58450;52.150;4.466;2023-05-07T09:47:04;4.72;;;2.70;;
66272;SDS011;58450;52.150;4.466;2023-05-07T09:49:33;5.75;;;2.45;;
66272;SDS011;58450;52.150;4.466;2023-05-07T09:52:03;4.38;;;2.50;;
66272;SDS011;58450;52.150;4.466;2023-05-07T09:54:35;6.18;;;3.05;;
66272;SDS011;58450;52.150;4.466;2023-05-07T09:57:05;6.05;;;2.63;;
66272;SDS011;58450;52.150;4.466;2023-05-07T09:59:34;4.97;;;2.95;;
66272;SDS011;58450;52.150;4.466;2023-05-07T10:02:04;6.07;;;3.22;;
66272;SDS011;58450;52.150;4.466;2023-05-07T10:04:32;6.72;;;3.35;;
66272;SDS011;58450;52.150;4.466;2023-05-07T10:07:00;7.03;;;3.28;;
66272;SDS011;58450;52.150;4.466;2023-05-07T10:09:31;5.95;;;3.15;;
66272;SDS011;58450;52.150;4.466;2023-05-07T10:11:59;5.00;;;2.70;;
66272;SDS011;58450;52.150;4.466;2023-05-07T10:14:28;7.10;;;3.55;;
66272;SDS011;58450;52.150;4.466;2023-05-07T10:16:56;4.10;;;2.60;;
66272;SDS011;58450;52.150;4.466;2023-05-07T10:19:24;5.28;;;2.53;;
66272;SDS011;58450;52.150;4.466;2023-05-07T10:21:55;5.30;;;2.03;;
66272;SDS011;58450;52.150;4.466;2023-05-07T10:24:31;4.60;;;2.28;;
66272;SDS011;58450;52.150;4.466;2023-05-07T10:27:01;4.90;;;2.08;;
66272;SDS011;58450;52.150;4.466;2023-05-07T10:29:39;5.00;;;2.28;;
66272;SDS011;58450;52.150;4.466;2023-05-07T10:32:26;4.30;;;2.08;;
66272;SDS011;58450;52.150;4.466;2023-05-07T10:35:06;5.03;;;2.67;;
66272;SDS011;58450;52.150;4.466;2023-05-07T10:37:42;6.80;;;2.53;;
66272;SDS011;58450;52.150;4.466;2023-05-07T10:40:12;4.97;;;2.40;;
66272;SDS011;58450;52.150;4.466;2023-05-07T10:42:52;5.10;;;2.35;;
66272;SDS011;58450;52.150;4.466;2023-05-07T10:45:24;5.68;;;2.60;;
66272;SDS011;58450;52.150;4.466;2023-05-07T10:48:08;5.82;;;2.88;;
66272;SDS011;58450;52.150;4.466;2023-05-07T10:50:38;5.45;;;2.58;;
66272;SDS011;58450;52.150;4.466;2023-05-07T10:53:23;4.80;;;2.10;;
66272;SDS011;58450;52.150;4.466;2023-05-07T11:02:08;5.50;;;2.40;;
66272;SDS011;58450;52.150;4.466;2023-05-07T11:04:39;5.05;;;2.13;;
66272;SDS011;58450;52.150;4.466;2023-05-07T11:09:58;4.72;;;2.30;;
66272;SDS011;58450;52.150;4.466;2023-05-07T11:12:51;4.88;;;2.00;;
66272;SDS011;58450;52.150;4.466;2023-05-07T11:15:33;5.15;;;2.75;;
66272;SDS011;58450;52.150;4.466;2023-05-07T11:18:09;5.38;;;2.03;;
66272;SDS011;58450;52.150;4.466;2023-05-07T11:20:47;5.18;;;2.50;;
66272;SDS011;58450;52.150;4.466;2023-05-07T11:26:26;5.05;;;2.40;;
66272;SDS011;58450;52.150;4.466;2023-05-07T11:28:56;7.20;;;2.35;;
66272;SDS011;58450;52.150;4.466;2023-05-07T11:31:27;5.97;;;2.60;;
66272;SDS011;58450;52.150;4.466;2023-05-07T11:33:57;5.75;;;2.78;;
66272;SDS011;58450;52.150;4.466;2023-05-07T11:36:25;5.85;;;2.40;;
66272;SDS011;58450;52.150;4.466;2023-05-07T11:38:59;4.80;;;2.05;;
66272;SDS011;58450;52.150;4.466;2023-05-07T11:41:33;7.95;;;2.67;;
66272;SDS011;58450;52.150;4.466;2023-05-07T11:44:02;10.35;;;3.28;;
66272;SDS011;58450;52.150;4.466;2023-05-07T11:46:30;6.10;;;3.20;;
66272;SDS011;58450;52.150;4.466;2023-05-07T11:49:00;7.38;;;3.30;;
66272;SDS011;58450;52.150;4.466;2023-05-07T11:51:28;5.72;;;2.95;;
66272;SDS011;58450;52.150;4.466;2023-05-07T11:53:55;5.10;;;2.63;;
66272;SDS011;58450;52.150;4.466;2023-05-07T11:56:23;9.45;;;4.03;;
66272;SDS011;58450;52.150;4.466;2023-05-07T11:58:50;8.27;;;4.50;;
66272;SDS011;58450;52.150;4.466;2023-05-07T12:01:18;9.82;;;5.20;;
66272;SDS011;58450;52.150;4.466;2023-05-07T12:03:45;12.23;;;5.63;;
66272;SDS011;58450;52.150;4.466;2023-05-07T12:06:15;9.25;;;6.10;;
66272;SDS011;58450;52.150;4.466;2023-05-07T12:08:44;11.15;;;6.47;;
66272;SDS011;58450;52.150;4.466;2023-05-07T12:11:13;11.93;;;6.53;;
66272;SDS011;58450;52.150;4.466;2023-05-07T12:13:44;12.45;;;6.50;;
66272;SDS011;58450;52.150;4.466;2023-05-07T12:16:11;12.82;;;7.32;;
66272;SDS011;58450;52.150;4.466;2023-05-07T12:18:39;11.90;;;6.85;;
66272;SDS011;58450;52.150;4.466;2023-05-07T12:21:08;14.82;;;6.75;;
66272;SDS011;58450;52.150;4.466;2023-05-07T12:23:38;14.25;;;6.32;;
66272;SDS011;58450;52.150;4.466;2023-05-07T12:26:06;14.38;;;6.50;;
66272;SDS011;58450;52.150;4.466;2023-05-07T12:28:36;15.60;;;7.45;;
66272;SDS011;58450;52.150;4.466;2023-05-07T12:31:05;17.75;;;7.32;;
66272;SDS011;58450;52.150;4.466;2023-05-07T12:33:34;16.10;;;7.20;;
66272;SDS011;58450;52.150;4.466;2023-05-07T12:36:05;15.48;;;7.80;;
66272;SDS011;58450;52.150;4.466;2023-05-07T12:38:35;20.20;;;8.60;;
66272;SDS011;58450;52.150;4.466;2023-05-07T12:41:06;22.60;;;8.88;;
66272;SDS011;58450;52.150;4.466;2023-05-07T12:43:35;21.48;;;9.90;;
66272;SDS011;58450;52.150;4.466;2023-05-07T12:46:04;24.05;;;11.05;;
66272;SDS011;58450;52.150;4.466;2023-05-07T12:48:33;22.23;;;10.68;;
66272;SDS011;58450;52.150;4.466;2023-05-07T12:51:03;23.45;;;11.95;;
66272;SDS011;58450;52.150;4.466;2023-05-07T12:53:33;24.38;;;11.32;;
66272;SDS011;58450;52.150;4.466;2023-05-07T12:56:08;19.38;;;11.18;;
66272;SDS011;58450;52.150;4.466;2023-05-07T12:58:36;17.83;;;11.13;;
66272;SDS011;58450;52.150;4.466;2023-05-07T13:01:04;21.30;;;12.98;;
66272;SDS011;58450;52.150;4.466;2023-05-07T13:03:34;21.27;;;12.70;;
66272;SDS011;58450;52.150;4.466;2023-05-07T13:06:03;18.48;;;11.52;;
66272;SDS011;58450;52.150;4.466;2023-05-07T13:08:36;19.75;;;12.13;;
66272;SDS011;58450;52.150;4.466;2023-05-07T13:11:07;20.38;;;12.20;;
66272;SDS011;58450;52.150;4.466;2023-05-07T13:13:36;20.92;;;13.98;;
66272;SDS011;58450;52.150;4.466;2023-05-07T13:16:07;18.17;;;12.75;;
66272;SDS011;58450;52.150;4.466;2023-05-07T13:18:38;20.33;;;13.25;;
66272;SDS011;58450;52.150;4.466;2023-05-07T13:21:09;18.27;;;11.55;;
66272;SDS011;58450;52.150;4.466;2023-05-07T13:23:38;18.95;;;12.75;;
66272;SDS011;58450;52.150;4.466;2023-05-07T13:26:07;15.90;;;10.23;;
66272;SDS011;58450;52.150;4.466;2023-05-07T13:28:35;17.08;;;11.20;;
66272;SDS011;58450;52.150;4.466;2023-05-07T13:31:03;20.65;;;11.95;;
66272;SDS011;58450;52.150;4.466;2023-05-07T13:33:30;19.10;;;11.93;;
66272;SDS011;58450;52.150;4.466;2023-05-07T13:35:58;16.20;;;11.48;;
66272;SDS011;58450;52.150;4.466;2023-05-07T13:38:26;15.98;;;11.32;;
66272;SDS011;58450;52.150;4.466;2023-05-07T13:40:53;16.25;;;10.65;;
66272;SDS011;58450;52.150;4.466;2023-05-07T13:43:22;14.68;;;9.68;;
66272;SDS011;58450;52.150;4.466;2023-05-07T13:45:50;14.30;;;8.18;;
66272;SDS011;58450;52.150;4.466;2023-05-07T13:48:17;11.70;;;7.32;;
66272;SDS011;58450;52.150;4.466;2023-05-07T13:50:45;12.90;;;7.22;;
66272;SDS011;58450;52.150;4.466;2023-05-07T13:53:12;8.77;;;5.35;;
66272;SDS011;58450;52.150;4.466;2023-05-07T13:55:41;12.77;;;6.28;;
66272;SDS011;58450;52.150;4.466;2023-05-07T13:58:08;13.73;;;8.43;;
66272;SDS011;58450;52.150;4.466;2023-05-07T14:00:38;14.48;;;9.02;;
66272;SDS011;58450;52.150;4.466;2023-05-07T14:03:05;15.43;;;10.43;;
66272;SDS011;58450;52.150;4.466;2023-05-07T14:05:33;18.10;;;12.10;;
66272;SDS011;58450;52.150;4.466;2023-05-07T14:08:01;14.25;;;10.48;;
66272;SDS011;58450;52.150;4.466;2023-05-07T14:10:30;15.68;;;11.55;;
66272;SDS011;58450;52.150;4.466;2023-05-07T14:13:00;16.33;;;11.55;;
66272;SDS011;58450;52.150;4.466;2023-05-07T14:15:28;17.90;;;12.25;;
66272;SDS011;58450;52.150;4.466;2023-05-07T14:17:56;17.42;;;13.10;;
66272;SDS011;58450;52.150;4.466;2023-05-07T14:20:24;19.52;;;13.20;;
66272;SDS011;58450;52.150;4.466;2023-05-07T14:22:52;18.30;;;12.52;;
66272;SDS011;58450;52.150;4.466;2023-05-07T14:25:19;19.85;;;13.10;;
66272;SDS011;58450;52.150;4.466;2023-05-07T14:27:47;17.23;;;13.50;;
66272;SDS011;58450;52.150;4.466;2023-05-07T14:30:14;17.08;;;12.55;;
66272;SDS011;58450;52.150;4.466;2023-05-07T14:32:42;17.38;;;11.68;;
66272;SDS011;58450;52.150;4.466;2023-05-07T14:35:11;15.50;;;10.90;;
66272;SDS011;58450;52.150;4.466;2023-05-07T14:37:38;17.63;;;10.65;;
66272;SDS011;58450;52.150;4.466;2023-05-07T14:40:06;18.83;;;11.02;;
66272;SDS011;58450;52.150;4.466;2023-05-07T14:42:35;11.30;;;9.18;;
66272;SDS011;58450;52.150;4.466;2023-05-07T14:45:03;13.57;;;8.30;;
66272;SDS011;58450;52.150;4.466;2023-05-07T14:47:32;11.90;;;7.25;;
66272;SDS011;58450;52.150;4.466;2023-05-07T14:49:59;10.68;;;6.80;;
66272;SDS011;58450;52.150;4.466;2023-05-07T14:52:28;11.15;;;7.00;;
66272;SDS011;58450;52.150;4.466;2023-05-07T14:54:56;11.88;;;6.18;;